createdAt,value
2022-10-17T00:03:16.042Z,12.15
2022-10-17T00:08:20.777Z,12.09
2022-10-17T00:13:24.672Z,12.12
2022-10-17T00:18:27.704Z,12.06
2022-10-17T00:23:30.679Z,12.01
2022-10-17T00:28:33.888Z,12.00
2022-10-17T00:33:37.345Z,11.91
2022-10-17T00:38:40.075Z,11.78
2022-10-17T00:43:43.241Z,11.73
2022-10-17T00:48:46.086Z,11.76
2022-10-17T00:53:49.906Z,11.63
2022-10-17T00:58:53.083Z,11.62
2022-10-17T01:03:55.934Z,11.59
2022-10-17T01:09:07.564Z,11.53
2022-10-17T01:14:10.699Z,11.52
2022-10-17T01:19:14.966Z,11.48
2022-10-17T01:24:19.815Z,11.45
2022-10-17T01:29:22.950Z,11.43
2022-10-17T01:34:25.795Z,11.41
2022-10-17T01:39:30.146Z,11.28
2022-10-17T01:44:33.736Z,11.23
2022-10-17T01:49:37.214Z,11.18
2022-10-17T01:54:40.647Z,11.14
2022-10-17T01:59:44.528Z,11.12
2022-10-17T02:04:48.149Z,11.09
2022-10-17T02:09:51.523Z,11.07
2022-10-17T02:14:55.767Z,10.95
2022-10-17T02:19:58.965Z,10.91
2022-10-17T02:25:02.207Z,10.89
2022-10-17T02:30:05.671Z,10.82
2022-10-17T02:35:08.925Z,10.83
2022-10-17T02:40:12.324Z,10.74
2022-10-17T02:45:15.792Z,10.69
2022-10-17T02:50:19.365Z,10.66
2022-10-17T02:55:23.003Z,10.64
2022-10-17T03:00:26.430Z,10.61
2022-10-17T03:05:29.915Z,10.56
2022-10-17T03:10:34.114Z,10.68
2022-10-17T03:15:37.820Z,10.54
2022-10-17T03:20:41.448Z,10.52
2022-10-17T03:25:44.850Z,10.53
2022-10-17T03:30:48.081Z,10.51
2022-10-17T03:41:23.831Z,10.37
2022-10-17T03:46:27.269Z,10.28
2022-10-17T03:51:31.204Z,10.22
2022-10-17T03:56:36.346Z,10.25
2022-10-17T04:01:41.053Z,10.18
2022-10-17T04:06:44.499Z,10.09
2022-10-17T04:11:47.812Z,10.07
2022-10-17T04:16:51.117Z,10.01
2022-10-17T04:21:54.355Z,9.99
2022-10-17T04:26:58.242Z,9.97
2022-10-17T04:32:01.491Z,9.97
2022-10-17T04:37:04.965Z,9.99
2022-10-17T04:42:08.452Z,9.93
2022-10-17T04:47:12.039Z,9.97
2022-10-17T04:52:15.837Z,9.95
2022-10-17T04:57:20.050Z,9.80
2022-10-17T05:02:23.461Z,9.74
2022-10-17T05:07:26.824Z,9.73
2022-10-17T05:12:30.461Z,9.81
2022-10-17T05:17:34.611Z,9.78
2022-10-17T05:22:41.290Z,9.73
2022-10-17T05:27:46.182Z,9.74
2022-10-17T05:32:51.897Z,9.71
2022-10-17T05:37:55.571Z,9.97
2022-10-17T05:42:59.162Z,9.82
2022-10-17T05:48:02.461Z,9.83
2022-10-17T05:53:05.781Z,9.79
2022-10-17T05:58:11.753Z,9.95
2022-10-17T06:03:21.121Z,9.91
2022-10-17T06:08:24.726Z,9.93
2022-10-17T06:13:29.095Z,9.96
2022-10-17T06:18:32.672Z,11.67
2022-10-17T06:28:57.523Z,12.42
2022-10-17T06:34:01.472Z,11.75
2022-10-17T06:39:06.909Z,11.33
2022-10-17T06:44:11.426Z,11.17
2022-10-17T06:49:34.357Z,11.19
2022-10-17T06:54:38.109Z,11.17
2022-10-17T06:59:41.520Z,11.37
2022-10-17T07:04:45.156Z,11.50
2022-10-17T07:09:48.824Z,11.65
2022-10-17T07:14:52.638Z,11.77
2022-10-17T07:19:57.943Z,11.97
2022-10-17T07:25:06.414Z,12.25
2022-10-17T07:35:42.706Z,12.71
2022-10-17T07:40:54.919Z,12.91
2022-10-17T07:46:01.112Z,13.21
2022-10-17T07:51:05.166Z,13.46
2022-10-17T07:56:10.265Z,13.63
2022-10-17T08:01:15.880Z,13.87
2022-10-17T08:06:19.733Z,14.23
2022-10-17T08:11:23.482Z,14.39
2022-10-17T08:16:26.771Z,14.59
2022-10-17T08:21:30.312Z,14.77
2022-10-17T08:26:33.703Z,15.01
2022-10-17T08:31:37.156Z,15.17
2022-10-17T08:36:41.533Z,15.41
2022-10-17T08:41:44.961Z,15.49
2022-10-17T08:46:48.398Z,15.75
2022-10-17T08:51:51.745Z,16.00
2022-10-17T08:56:55.624Z,16.21
2022-10-17T09:01:59.650Z,16.39
2022-10-17T09:07:04.311Z,16.36
2022-10-17T09:12:09.450Z,16.64
2022-10-17T09:17:14.787Z,16.71
2022-10-17T09:22:18.168Z,17.03
2022-10-17T09:27:22.980Z,17.13
2022-10-17T09:32:29.404Z,17.24
2022-10-17T09:37:33.197Z,17.43
2022-10-17T09:42:39.335Z,17.64
2022-10-17T09:47:47.027Z,17.76
2022-10-17T09:52:50.878Z,17.90
2022-10-17T09:57:54.660Z,18.02
2022-10-17T10:02:59.145Z,18.06
2022-10-17T10:08:02.668Z,18.25
2022-10-17T10:13:06.660Z,18.40
2022-10-17T10:18:10.287Z,18.56
2022-10-17T10:23:14.351Z,18.68
2022-10-17T10:28:17.839Z,18.78
2022-10-17T10:33:21.471Z,18.94
2022-10-17T10:38:24.927Z,19.12
2022-10-17T10:43:29.927Z,19.07
2022-10-17T10:48:33.814Z,19.31
2022-10-17T10:53:38.866Z,19.36
2022-10-17T10:58:42.958Z,19.53
2022-10-17T11:03:46.630Z,19.58
2022-10-17T11:08:53.576Z,19.66
2022-10-17T11:13:56.376Z,19.93
2022-10-17T11:18:59.538Z,20.04
2022-10-17T11:24:06.904Z,20.13
2022-10-17T11:29:11.986Z,20.26
2022-10-17T11:34:20.076Z,20.28
2022-10-17T11:39:24.865Z,20.40
2022-10-17T11:44:27.978Z,20.47
2022-10-17T11:49:32.933Z,20.45
2022-10-17T11:54:38.519Z,20.71
2022-10-17T11:59:41.569Z,20.67
2022-10-17T12:04:49.368Z,20.81
2022-10-17T12:09:53.256Z,21.04
2022-10-17T12:15:04.388Z,21.12
2022-10-17T12:20:08.890Z,21.33
2022-10-17T12:25:12.824Z,21.45
2022-10-17T12:30:26.817Z,21.62
2022-10-17T12:35:30.562Z,21.71
2022-10-17T12:40:34.618Z,21.69
2022-10-17T12:45:38.313Z,22.06
2022-10-17T12:50:41.979Z,22.10
2022-10-17T12:55:45.811Z,22.25
2022-10-17T13:01:05.268Z,22.31
2022-10-17T13:06:12.381Z,22.42
2022-10-17T13:11:18.144Z,22.53
2022-10-17T13:16:21.039Z,22.45
2022-10-17T13:21:24.741Z,22.58
2022-10-17T13:26:27.756Z,22.60
2022-10-17T13:31:32.123Z,22.56
2022-10-17T13:36:34.958Z,22.78
2022-10-17T13:41:38.329Z,22.76
2022-10-17T13:46:41.293Z,22.80
2022-10-17T13:51:44.213Z,22.78
2022-10-17T13:56:48.483Z,22.82
2022-10-17T14:01:52.304Z,22.74
2022-10-17T14:06:56.584Z,22.70
2022-10-17T14:12:00.842Z,22.71
2022-10-17T14:17:03.619Z,22.78
2022-10-17T14:22:06.591Z,22.72
2022-10-17T14:27:10.688Z,22.65
2022-10-17T14:32:13.805Z,22.59
2022-10-17T14:37:16.773Z,22.58
2022-10-17T14:42:20.153Z,22.41
2022-10-17T14:47:42.743Z,22.25
2022-10-17T14:52:50.341Z,22.20
2022-10-17T15:03:13.945Z,22.06
2022-10-17T15:08:16.750Z,21.83
2022-10-17T15:13:28.876Z,21.67
2022-10-17T15:18:34.203Z,21.54
2022-10-17T15:23:37.309Z,21.15
2022-10-17T15:28:40.207Z,21.07
2022-10-17T15:33:43.774Z,21.09
2022-10-17T15:38:46.846Z,21.05
2022-10-17T15:43:49.642Z,20.67
2022-10-17T15:48:52.586Z,20.27
2022-10-17T15:53:57.229Z,20.07
2022-10-17T15:59:00.179Z,19.82
2022-10-17T16:04:03.101Z,19.72
2022-10-17T16:09:06.785Z,19.49
2022-10-17T16:14:09.886Z,19.32
2022-10-17T16:19:12.864Z,18.99
2022-10-17T16:24:18.081Z,18.82
2022-10-17T16:29:21.058Z,18.61
2022-10-17T16:34:26.963Z,18.49
2022-10-17T16:39:29.753Z,18.33
2022-10-17T16:44:32.967Z,18.21
2022-10-17T16:49:35.927Z,18.01
2022-10-17T16:54:41.129Z,17.72
2022-10-17T16:59:47.357Z,17.59
2022-10-17T17:04:50.617Z,17.56
2022-10-17T17:09:53.991Z,17.54
2022-10-17T17:14:58.151Z,17.40
2022-10-17T17:20:01.024Z,17.50
2022-10-17T17:25:05.113Z,17.53
2022-10-17T17:30:08.237Z,17.26
2022-10-17T17:35:12.161Z,17.05
2022-10-17T17:40:15.382Z,16.70
2022-10-17T17:45:20.768Z,16.52
2022-10-17T17:50:24.709Z,16.24
2022-10-17T17:55:28.088Z,16.11
2022-10-17T18:00:30.899Z,16.02
2022-10-17T18:05:33.870Z,15.87
2022-10-17T18:10:36.679Z,15.77
2022-10-17T18:15:39.551Z,15.69
2022-10-17T18:20:42.509Z,15.64
2022-10-17T18:25:45.512Z,15.55
2022-10-17T18:30:51.307Z,15.42
2022-10-17T18:35:58.188Z,15.29
2022-10-17T18:41:02.242Z,15.23
2022-10-17T18:46:09.690Z,15.16
2022-10-17T18:51:16.050Z,15.08
2022-10-17T18:56:19.495Z,14.94
2022-10-17T19:01:22.954Z,15.00
2022-10-17T19:06:27.934Z,14.90
2022-10-17T19:11:32.163Z,14.82
2022-10-17T19:16:39.409Z,14.77
2022-10-17T19:21:46.447Z,14.69
2022-10-17T19:26:54.207Z,14.60
2022-10-17T19:31:57.606Z,14.57
2022-10-17T19:37:04.236Z,14.53
2022-10-17T19:45:56.555Z,14.40
2022-10-17T19:50:59.325Z,14.36
2022-10-17T19:56:02.034Z,14.29
2022-10-17T20:01:04.838Z,14.22
2022-10-17T20:06:07.571Z,14.15
2022-10-17T20:11:10.342Z,14.07
2022-10-17T20:16:13.056Z,13.96
2022-10-17T20:21:15.892Z,14.00
2022-10-17T20:26:37.745Z,13.90
2022-10-17T20:31:41.152Z,13.84
2022-10-17T20:36:44.078Z,13.73
2022-10-17T20:41:46.780Z,13.70
2022-10-17T20:47:01.907Z,13.65
2022-10-17T20:52:07.001Z,13.55
2022-10-17T20:57:09.884Z,13.47
2022-10-17T21:02:13.640Z,13.52
2022-10-17T21:07:16.953Z,13.48
2022-10-17T21:12:30.883Z,13.49
2022-10-17T21:17:39.971Z,13.37
2022-10-17T21:22:42.834Z,13.34
2022-10-17T21:27:45.676Z,13.32
2022-10-17T21:32:52.218Z,13.27
2022-10-17T21:37:55.364Z,13.24
2022-10-17T21:42:58.454Z,13.17
2022-10-17T21:48:12.561Z,13.12
2022-10-17T21:53:16.144Z,13.08
2022-10-17T21:58:19.270Z,12.98
2022-10-17T22:03:22.679Z,12.96
2022-10-17T22:08:25.814Z,12.86
2022-10-17T22:13:28.625Z,12.83
2022-10-17T22:18:31.500Z,12.82
2022-10-17T22:23:35.826Z,12.83
2022-10-17T22:28:38.736Z,12.78
2022-10-17T22:33:42.025Z,12.68
2022-10-17T22:38:45.819Z,12.67
2022-10-17T22:43:48.633Z,12.72
2022-10-17T22:48:51.518Z,12.69
2022-10-17T22:53:54.356Z,12.68
2022-10-17T22:58:57.178Z,12.59
2022-10-17T23:04:00.262Z,12.62
2022-10-17T23:09:03.290Z,12.50
2022-10-17T23:14:06.800Z,12.46
2022-10-17T23:19:09.677Z,12.34
2022-10-17T23:24:12.586Z,12.22
2022-10-17T23:29:16.216Z,12.12
2022-10-17T23:34:20.071Z,12.26
2022-10-17T23:39:23.005Z,12.06
2022-10-17T23:44:26.248Z,11.96
2022-10-17T23:49:29.874Z,11.87
2022-10-17T23:54:33.538Z,11.78
2022-10-17T23:59:36.703Z,11.68
